Blackville, Canada
Current Conditions -  °F | °C
As of 6:00 AM on Thursday 29 Jan 2015 (Local Time) from CZBF Reporting Station
Clear Clear  
Wind Chill: -2°   Ceiling: Unl
Heat Index: 10°   Visibility: 15mi
Dew Point:   Wind: 8mph
Humidity: 62%   Direction: 290°WNW
Pressure: 30.14"   Gusts: NA
Location:  46.73°N, 65.83°W
Report Text: CZBF 291000Z 29007KT 240V320 15SM SKC M12/M18 A3014 RMK SLP211
Loading
Personal Weather Stations






























Interactive Weather Map New forecast layout! Learn more

10-Day Weather Forecast

Advertisements
Track Severe Weather on mobile